Terminal Aerodrome Forecast
Issued by NWS San Angelo, TX

Home | Current Version | Previous Version | Text Only | Print | Product List | Glossary On
Versions: 1 2 3 4 5 6 7 8 9 10 11 12 13 14 15 16 17 18
993
FTUS44 KSJT 220525
TAFABI
TAF
KABI 220525Z 2206/2306 01011KT P6SM FEW045
      TEMPO 2206/2209 01011KT P6SM BKN020=

USA.gov is the U.S. government's official web portal to all federal, state and local government web resources and services.